createdAt,value
2022-11-24T00:03:30.972Z,5.04
2022-11-24T00:08:36.563Z,5.02
2022-11-24T00:13:40.300Z,5.09
2022-11-24T00:18:46.270Z,5.08
2022-11-24T00:23:51.634Z,5.18
2022-11-24T00:28:57.628Z,5.17
2022-11-24T00:34:02.587Z,5.06
2022-11-24T00:39:08.673Z,5.10
2022-11-24T00:44:12.342Z,5.10
2022-11-24T00:49:15.956Z,4.70
2022-11-24T00:54:21.105Z,5.09
2022-11-24T00:59:24.716Z,5.26
2022-11-24T01:04:28.289Z,4.98
2022-11-24T01:09:33.143Z,5.14
2022-11-24T01:14:36.869Z,5.20
2022-11-24T01:19:40.702Z,5.35
2022-11-24T01:24:46.621Z,5.44
2022-11-24T01:29:50.076Z,5.54
2022-11-24T01:34:53.710Z,5.27
2022-11-24T01:39:58.715Z,5.53
2022-11-24T01:45:40.934Z,5.64
2022-11-24T01:50:45.407Z,5.70
2022-11-24T01:55:53.035Z,5.61
2022-11-24T02:00:57.177Z,5.54
2022-11-24T02:06:06.021Z,5.14
2022-11-24T02:11:11.226Z,5.05
2022-11-24T02:16:14.805Z,4.65
2022-11-24T02:21:19.168Z,4.67
2022-11-24T02:26:34.537Z,4.62
2022-11-24T02:31:38.785Z,4.37
2022-11-24T02:36:42.475Z,4.41
2022-11-24T02:41:51.334Z,4.15
2022-11-24T02:47:03.403Z,4.50
2022-11-24T02:52:07.769Z,4.70
2022-11-24T02:57:13.204Z,4.87
2022-11-24T03:02:16.769Z,4.81
2022-11-24T03:07:20.535Z,4.67
2022-11-24T03:12:25.419Z,4.77
2022-11-24T03:17:28.893Z,4.96
2022-11-24T03:22:32.433Z,5.01
2022-11-24T03:27:37.359Z,4.95
2022-11-24T03:32:41.953Z,5.17
2022-11-24T03:37:45.450Z,4.92
2022-11-24T03:42:50.611Z,5.12
2022-11-24T03:47:54.185Z,5.05
2022-11-24T03:52:58.003Z,4.85
2022-11-24T03:58:03.200Z,5.07
2022-11-24T04:03:06.719Z,4.91
2022-11-24T04:08:10.595Z,5.05
2022-11-24T04:13:17.701Z,5.10
2022-11-24T04:18:21.944Z,4.95
2022-11-24T04:23:25.495Z,4.95
2022-11-24T04:28:30.546Z,4.93
2022-11-24T04:33:34.304Z,4.80
2022-11-24T04:39:23.680Z,4.76
2022-11-24T04:44:03.329Z,4.89
2022-11-24T04:49:07.152Z,5.03
2022-11-24T04:54:12.516Z,5.02
2022-11-24T04:59:17.508Z,5.18
2022-11-24T05:04:21.519Z,4.96
2022-11-24T05:09:36.896Z,5.12
2022-11-24T05:14:51.009Z,4.90
2022-11-24T05:19:55.029Z,4.93
2022-11-24T05:24:58.685Z,4.67
2022-11-24T05:30:04.656Z,4.59
2022-11-24T05:35:09.875Z,4.50
2022-11-24T05:40:14.796Z,4.45
2022-11-24T05:45:22.527Z,4.40
2022-11-24T05:50:26.144Z,4.47
2022-11-24T05:55:29.753Z,4.80
2022-11-24T06:00:36.134Z,5.10
2022-11-24T06:05:39.855Z,4.96
2022-11-24T06:10:43.442Z,5.11
2022-11-24T06:15:48.372Z,5.00
2022-11-24T06:21:09.506Z,5.02
2022-11-24T06:26:14.147Z,5.03
2022-11-24T06:31:19.290Z,5.18
2022-11-24T06:36:22.917Z,5.12
2022-11-24T06:41:26.613Z,4.93
2022-11-24T06:46:31.559Z,4.93
2022-11-24T06:51:35.185Z,5.09
2022-11-24T06:56:39.201Z,5.22
2022-11-24T07:01:44.161Z,5.40
2022-11-24T07:06:47.892Z,5.61
2022-11-24T07:11:51.528Z,5.41
2022-11-24T07:16:56.898Z,5.65
2022-11-24T07:22:00.764Z,5.61
2022-11-24T07:27:04.392Z,5.99
2022-11-24T07:32:09.399Z,6.04
2022-11-24T07:37:14.744Z,6.29
2022-11-24T07:42:18.268Z,6.50
2022-11-24T07:47:23.256Z,6.65
2022-11-24T07:52:26.800Z,7.29
2022-11-24T07:57:30.740Z,7.44
2022-11-24T08:02:35.970Z,7.60
2022-11-24T08:07:39.539Z,7.68
2022-11-24T08:12:44.060Z,7.68
2022-11-24T08:17:49.070Z,7.66
2022-11-24T08:22:52.527Z,7.66
2022-11-24T08:27:56.262Z,7.54
2022-11-24T08:33:01.575Z,7.54
2022-11-24T08:38:05.428Z,7.77
2022-11-24T08:43:09.039Z,7.46
2022-11-24T08:48:14.147Z,8.05
2022-11-24T08:53:17.733Z,8.03
2022-11-24T08:58:21.194Z,8.27
2022-11-24T09:03:26.042Z,8.33
2022-11-24T09:08:30.867Z,8.33
2022-11-24T09:13:34.830Z,8.58
2022-11-24T09:18:40.329Z,8.28
2022-11-24T09:23:44.825Z,8.63
2022-11-24T09:28:48.415Z,8.79
2022-11-24T09:33:53.534Z,8.74
2022-11-24T09:38:57.268Z,8.72
2022-11-24T09:44:09.055Z,8.81
2022-11-24T09:49:18.654Z,9.01
2022-11-24T09:54:26.584Z,9.03
2022-11-24T09:59:30.458Z,9.13
2022-11-24T10:04:40.521Z,9.13
2022-11-24T10:09:57.526Z,9.05
2022-11-24T10:15:39.018Z,8.79
2022-11-24T10:20:53.229Z,8.82
2022-11-24T10:25:58.988Z,8.93
2022-11-24T10:31:19.814Z,9.20
2022-11-24T10:36:35.301Z,9.15
2022-11-24T10:41:48.103Z,9.57
2022-11-24T10:46:52.034Z,9.54
2022-11-24T10:52:07.281Z,9.81
2022-11-24T10:57:27.635Z,9.86
2022-11-24T11:02:37.486Z,9.82
2022-11-24T11:07:43.166Z,9.77
2022-11-24T11:12:46.724Z,9.54
2022-11-24T11:17:52.511Z,9.59
2022-11-24T11:22:59.931Z,9.53
2022-11-24T11:28:20.993Z,9.63
2022-11-24T11:38:51.804Z,9.57
2022-11-24T11:44:03.542Z,9.60
2022-11-24T11:49:07.463Z,9.69
2022-11-24T11:54:22.630Z,9.62
2022-11-24T11:59:52.544Z,9.91
2022-11-24T12:05:00.825Z,9.89
2022-11-24T12:10:17.448Z,10.07
2022-11-24T12:15:29.805Z,10.13
2022-11-24T12:20:46.619Z,9.94
2022-11-24T12:26:00.424Z,9.80
2022-11-24T12:31:07.749Z,9.45
2022-11-24T12:36:24.681Z,9.42
2022-11-24T12:41:46.936Z,9.43
2022-11-24T12:46:58.126Z,9.50
2022-11-24T12:52:06.867Z,9.41
2022-11-24T12:57:17.514Z,9.47
2022-11-24T13:02:31.185Z,9.48
2022-11-24T13:07:44.587Z,9.59
2022-11-24T13:12:57.515Z,9.57
2022-11-24T13:18:10.401Z,9.47
2022-11-24T13:23:30.643Z,9.34
2022-11-24T13:29:09.311Z,9.35
2022-11-24T13:35:04.047Z,9.64
2022-11-24T13:40:37.685Z,9.91
2022-11-24T13:45:52.840Z,9.79
2022-11-24T13:51:15.688Z,9.90
2022-11-24T13:56:27.178Z,9.81
2022-11-24T14:01:37.016Z,10.27
2022-11-24T14:06:45.207Z,10.18
2022-11-24T14:12:00.013Z,9.46
2022-11-24T14:17:19.266Z,9.25
2022-11-24T14:22:33.308Z,8.96
2022-11-24T14:27:40.347Z,8.85
2022-11-24T14:32:54.841Z,8.64
2022-11-24T14:38:00.245Z,8.76
2022-11-24T14:43:05.275Z,8.31
2022-11-24T14:48:17.246Z,8.50
2022-11-24T14:53:26.410Z,8.34
2022-11-24T14:58:40.495Z,8.48
2022-11-24T15:03:49.364Z,8.19
2022-11-24T15:08:53.638Z,8.35
2022-11-24T15:13:57.368Z,8.41
2022-11-24T15:19:03.496Z,8.30
2022-11-24T15:24:16.358Z,7.90
2022-11-24T15:29:20.218Z,7.76
2022-11-24T15:34:25.325Z,7.71
2022-11-24T15:39:28.949Z,7.41
2022-11-24T15:44:39.325Z,7.19
2022-11-24T15:49:44.680Z,7.31
2022-11-24T15:54:52.064Z,7.02
2022-11-24T15:59:55.777Z,7.08
2022-11-24T16:05:00.878Z,7.10
2022-11-24T16:10:04.925Z,6.92
2022-11-24T16:15:09.648Z,7.02
2022-11-24T16:20:15.214Z,6.99
2022-11-24T16:25:18.872Z,6.75
2022-11-24T16:30:22.618Z,6.84
2022-11-24T16:35:28.408Z,6.91
2022-11-24T16:40:32.163Z,6.94
2022-11-24T16:45:38.526Z,6.66
2022-11-24T16:50:46.046Z,6.95
2022-11-24T16:55:58.515Z,6.73
2022-11-24T17:01:05.178Z,6.83
2022-11-24T17:06:12.399Z,6.89
2022-11-24T17:11:18.200Z,6.93
2022-11-24T17:16:24.274Z,6.80
2022-11-24T17:21:29.487Z,6.60
2022-11-24T17:26:35.564Z,6.62
2022-11-24T17:31:40.321Z,6.83
2022-11-24T17:36:46.163Z,6.85
2022-11-24T17:41:49.942Z,6.73
2022-11-24T17:46:53.566Z,6.83
2022-11-24T17:51:58.430Z,6.86
2022-11-24T17:57:01.939Z,6.87
2022-11-24T18:02:05.767Z,6.55
2022-11-24T18:07:11.433Z,6.37
2022-11-24T18:12:15.290Z,6.73
2022-11-24T18:17:18.815Z,6.76
2022-11-24T18:22:50.129Z,6.64
2022-11-24T18:27:51.639Z,6.68
2022-11-24T18:32:55.198Z,6.74
2022-11-24T18:38:00.666Z,6.57
2022-11-24T18:43:04.798Z,6.41
2022-11-24T18:48:08.430Z,6.29
2022-11-24T18:53:14.579Z,6.33
2022-11-24T18:58:23.689Z,6.12
2022-11-24T19:03:30.465Z,6.01
2022-11-24T19:08:38.253Z,5.85
2022-11-24T19:13:45.991Z,5.63
2022-11-24T19:18:56.906Z,5.45
2022-11-24T19:24:05.701Z,5.13
2022-11-24T19:29:10.556Z,4.94
2022-11-24T19:34:14.570Z,4.79
2022-11-24T19:39:19.916Z,4.52
2022-11-24T19:44:25.132Z,4.41
2022-11-24T19:49:29.155Z,3.78
2022-11-24T19:54:35.605Z,4.08
2022-11-24T19:59:40.182Z,3.74
2022-11-24T20:04:47.353Z,3.77
2022-11-24T20:09:56.349Z,3.62
2022-11-24T20:15:04.580Z,3.61
2022-11-24T20:20:09.006Z,3.54
2022-11-24T20:25:14.344Z,3.39
2022-11-24T20:30:18.580Z,3.22
2022-11-24T20:35:22.106Z,2.79
2022-11-24T20:40:27.463Z,2.77
2022-11-24T20:45:39.230Z,2.83
2022-11-24T20:50:46.921Z,2.37
2022-11-24T20:56:05.609Z,2.49
2022-11-24T21:01:12.286Z,2.37
2022-11-24T21:06:16.588Z,2.19
2022-11-24T21:11:22.375Z,2.15
2022-11-24T21:16:27.727Z,2.06
2022-11-24T21:21:35.167Z,1.99
2022-11-24T21:26:47.501Z,1.86
2022-11-24T21:31:51.292Z,1.83
2022-11-24T21:36:55.063Z,1.70
2022-11-24T21:42:00.099Z,1.63
2022-11-24T21:47:04.727Z,1.17
2022-11-24T21:52:08.473Z,1.29
2022-11-24T21:57:13.725Z,1.25
2022-11-24T22:02:17.496Z,1.20
2022-11-24T22:07:21.144Z,1.13
2022-11-24T22:12:26.351Z,1.17
2022-11-24T22:17:31.850Z,1.01
2022-11-24T22:22:35.488Z,1.03
2022-11-24T22:27:40.559Z,0.81
2022-11-24T22:32:44.124Z,0.99
2022-11-24T22:37:47.650Z,0.62
2022-11-24T22:42:52.659Z,0.89
2022-11-24T22:47:56.297Z,0.69
2022-11-24T22:52:59.897Z,0.78
2022-11-24T22:58:04.740Z,0.76
2022-11-24T23:03:08.296Z,0.55
2022-11-24T23:08:11.886Z,0.62
2022-11-24T23:13:16.897Z,0.47
2022-11-24T23:18:20.306Z,0.32
2022-11-24T23:23:23.823Z,0.33
2022-11-24T23:28:28.926Z,0.35
2022-11-24T23:33:33.022Z,0.35
2022-11-24T23:38:36.644Z,0.28
2022-11-24T23:43:43.467Z,0.34
2022-11-24T23:48:48.029Z,0.27
2022-11-24T23:53:52.873Z,0.28
2022-11-24T23:58:58.349Z,0.33
